ENGM

Oslo Gardermoen Airport

Oslo, Norway

ENGM 110850Z 02004KT 7000 -SN BKN013 M04/M05 Q0993 TEMPO 4000 -SN

Observed Flight Rules
Dec-11 @ 08:50 UTC (39 minutes ago) Marginal Visual Flight Rules
Wind Visibility Clouds Conditions
20° at 4 knots 7,001 meters
  • Broken at 1,300' AGL
  • Light Snow
Temperatures Readings
Current -4°C / 25°F
Dewpoint -5°C / 23°F
Humidity 93%
Altimeter 29.32" Hg
Pressure 993 hPa
Elevation 204
Observed Flight Rules
Dec-11 @ 08:50 UTC
(39 minutes ago)
MVFR
Wind Visibility
20° at 4 knots 7,001 meters
Clouds
  • Broken at 1,300' AGL
Conditions
  • Light Snow
Temperature Dewpoint
-4°C / 25°F -5°C / 23°F
Humidity Altimeter Pressure
93% 29.32" Hg 993 hPa